Time;durP1;ratioP1;P1;durP2;ratioP2;P2;SDS_P1;SDS_P2;PMS_P1;PMS_P2;Temp;Humidity;BMP_temperature;BMP_pressure;BME280_temperature;BME280_humidity;BME280_pressure;Samples;Min_cycle;Max_cycle;Signal;HPM_P1;HPM_P2
2024/01/15 00:00:11;;;;;;;14.47;6.77;;;;;;;-2.19;100.00;97129.03;5079051;28;20232;-78
2024/01/15 00:02:38;;;;;;;13.03;5.80;;;;;;;-2.31;100.00;97130.31;5091027;28;20226;-78
2024/01/15 00:05:05;;;;;;;16.90;7.57;;;;;;;-2.42;100.00;97136.72;5091490;28;20217;-78
2024/01/15 00:07:31;;;;;;;16.97;6.83;;;;;;;-2.50;100.00;97128.41;5090482;28;20214;-77
2024/01/15 00:09:58;;;;;;;15.60;6.23;;;;;;;-2.50;100.00;97128.41;5081765;28;20587;-78
2024/01/15 00:12:24;;;;;;;18.60;7.77;;;;;;;-2.68;100.00;97129.88;5074381;28;20248;-78
2024/01/15 00:14:52;;;;;;;16.77;7.57;;;;;;;-2.67;100.00;97122.94;5074584;28;20241;-78
2024/01/15 00:17:19;;;;;;;13.57;6.63;;;;;;;-2.70;100.00;97125.66;5073313;28;20236;-78
2024/01/15 00:19:45;;;;;;;16.87;6.43;;;;;;;-2.70;100.00;97125.66;5074151;28;20980;-78
2024/01/15 00:22:12;;;;;;;16.10;6.10;;;;;;;-2.72;100.00;97123.09;5073888;28;20231;-77
2024/01/15 00:24:38;;;;;;;14.73;6.50;;;;;;;-2.82;100.00;97116.53;5073465;28;20218;-77
2024/01/15 00:27:05;;;;;;;14.83;6.97;;;;;;;-2.87;100.00;97115.84;5073336;28;20595;-79
2024/01/15 00:29:32;;;;;;;19.13;6.73;;;;;;;-2.93;100.00;97117.78;5074330;28;20213;-78
2024/01/15 00:31:59;;;;;;;15.27;6.57;;;;;;;-2.95;100.00;97109.25;5073719;28;20606;-76
2024/01/15 00:34:26;;;;;;;14.23;7.03;;;;;;;-2.90;100.00;97107.34;5073555;28;20214;-76
2024/01/15 00:36:52;;;;;;;16.03;6.40;;;;;;;-2.93;100.00;97112.63;5072745;28;20214;-78
2024/01/15 00:39:19;;;;;;;15.40;6.93;;;;;;;-2.93;100.00;97115.22;5073341;28;20221;-76
2024/01/15 00:41:45;;;;;;;15.67;6.77;;;;;;;-2.96;100.00;97120.47;5073539;28;20226;-77
2024/01/15 00:44:12;;;;;;;14.70;6.93;;;;;;;-3.06;100.00;97117.34;5073323;28;20317;-77
2024/01/15 00:46:45;;;;;;;11.53;6.00;;;;;;;-3.12;100.00;97122.69;5072494;28;20215;-78
2024/01/15 00:49:13;;;;;;;19.57;6.60;;;;;;;-3.11;100.00;97129.56;5073652;28;20271;-78
2024/01/15 00:51:40;;;;;;;18.37;6.07;;;;;;;-3.13;100.00;97122.78;5073432;28;20609;-78
2024/01/15 00:54:06;;;;;;;11.53;6.27;;;;;;;-3.07;100.00;97114.81;5072107;28;20672;-78
2024/01/15 00:56:33;;;;;;;19.40;6.90;;;;;;;-3.02;100.00;97118.06;5072782;28;20212;-78
2024/01/15 00:59:00;;;;;;;12.80;5.47;;;;;;;-3.01;100.00;97119.78;5073041;28;20210;-78
2024/01/15 01:01:27;;;;;;;13.83;6.20;;;;;;;-2.98;100.00;97117.09;5073745;28;20229;-78
2024/01/15 01:03:53;;;;;;;15.80;6.47;;;;;;;-2.92;100.00;97125.50;5073308;28;20205;-78
2024/01/15 01:06:21;;;;;;;13.33;6.13;;;;;;;-2.80;100.00;97124.25;5072349;28;20203;-76
2024/01/15 01:08:48;;;;;;;14.37;6.30;;;;;;;-2.66;100.00;97127.22;5073293;28;20747;-77
2024/01/15 01:11:14;;;;;;;14.47;5.27;;;;;;;-2.59;100.00;97121.78;5072765;28;20242;-77
2024/01/15 01:13:41;;;;;;;13.33;5.93;;;;;;;-2.55;100.00;97117.34;5072803;28;20206;-77
2024/01/15 01:16:08;;;;;;;14.70;6.33;;;;;;;-2.46;100.00;97109.31;5072512;28;20213;-77
2024/01/15 01:18:34;;;;;;;13.43;6.07;;;;;;;-2.43;100.00;97109.19;5072710;28;20219;-77
2024/01/15 01:21:01;;;;;;;15.00;6.00;;;;;;;-2.33;100.00;97105.38;5072937;28;20203;-77
2024/01/15 01:23:28;;;;;;;14.50;6.03;;;;;;;-2.31;100.00;97098.41;5072948;28;20230;-77
2024/01/15 01:25:55;;;;;;;13.53;6.13;;;;;;;-2.25;100.00;97093.88;5072133;28;20697;-77
2024/01/15 01:28:21;;;;;;;11.13;5.30;;;;;;;-2.22;100.00;97093.75;5072620;28;20649;-77
2024/01/15 01:30:48;;;;;;;11.80;5.40;;;;;;;-2.11;100.00;97090.75;5072670;28;20239;-77
2024/01/15 01:33:14;;;;;;;14.03;6.50;;;;;;;-2.08;100.00;97088.09;5072771;28;20234;-77
2024/01/15 01:35:41;;;;;;;12.00;6.23;;;;;;;-2.06;100.00;97086.28;5072605;28;20222;-77
2024/01/15 01:38:07;;;;;;;11.43;5.13;;;;;;;-1.98;100.00;97086.81;5071967;28;20577;-77
2024/01/15 01:40:35;;;;;;;16.00;6.17;;;;;;;-1.92;100.00;97096.94;5072414;28;20210;-77
2024/01/15 01:43:03;;;;;;;11.70;5.47;;;;;;;-1.83;100.00;97097.44;5072259;28;20229;-77
2024/01/15 01:45:30;;;;;;;13.60;5.70;;;;;;;-1.80;100.00;97093.91;5072308;28;20214;-77
2024/01/15 01:47:57;;;;;;;13.07;5.43;;;;;;;-1.76;100.00;97098.09;5072008;28;20207;-77
2024/01/15 01:50:23;;;;;;;14.17;5.93;;;;;;;-1.65;100.00;97093.34;5072461;28;20556;-76
2024/01/15 01:52:51;;;;;;;9.83;5.20;;;;;;;-1.64;100.00;97097.63;5072120;28;20242;-76
2024/01/15 01:55:18;;;;;;;15.93;6.53;;;;;;;-1.63;100.00;97094.13;5072092;28;20210;-76
2024/01/15 01:57:46;;;;;;;12.37;5.50;;;;;;;-1.57;100.00;97089.56;5071801;28;20211;-76
2024/01/15 02:00:14;;;;;;;11.23;5.87;;;;;;;-1.52;100.00;97097.16;5071281;28;20650;-76
2024/01/15 02:02:41;;;;;;;9.93;4.93;;;;;;;-1.51;100.00;97096.25;5071782;28;20267;-76
2024/01/15 02:05:09;;;;;;;13.47;5.53;;;;;;;-1.49;100.00;97099.63;5071413;28;20678;-76
2024/01/15 02:07:36;;;;;;;15.87;6.27;;;;;;;-1.49;100.00;97097.88;5071402;28;20210;-76
2024/01/15 02:10:03;;;;;;;11.23;5.43;;;;;;;-1.47;100.00;97087.47;5072255;28;20211;-76
2024/01/15 02:12:30;;;;;;;14.57;6.50;;;;;;;-1.40;100.00;97091.50;5071933;28;20655;-76
2024/01/15 02:14:57;;;;;;;11.40;5.77;;;;;;;-1.39;100.00;97082.81;5071680;28;20658;-77
2024/01/15 02:17:24;;;;;;;17.10;6.00;;;;;;;-1.39;100.00;97082.81;5071884;28;20218;-77
2024/01/15 02:19:50;;;;;;;11.87;4.90;;;;;;;-1.40;100.00;97081.16;5072180;28;20217;-77
2024/01/15 02:22:17;;;;;;;11.60;5.87;;;;;;;-1.34;100.00;97080.91;5072378;28;20223;-76
2024/01/15 02:24:45;;;;;;;9.97;5.60;;;;;;;-1.37;100.00;97070.66;5071470;28;20570;-77
2024/01/15 02:27:11;;;;;;;11.87;5.83;;;;;;;-1.32;100.00;97073.91;5071596;28;20207;-78
2024/01/15 02:29:38;;;;;;;12.93;5.03;;;;;;;-1.34;100.00;97070.53;5072095;28;20210;-76
2024/01/15 02:32:06;;;;;;;12.90;6.07;;;;;;;-1.33;100.00;97072.22;5071693;28;20234;-76
2024/01/15 02:34:32;;;;;;;11.17;4.80;;;;;;;-1.36;100.00;97077.53;5071741;28;20285;-77
2024/01/15 02:36:59;;;;;;;13.60;5.23;;;;;;;-1.36;100.00;97069.75;5072347;28;20574;-77
2024/01/15 02:39:25;;;;;;;9.80;5.30;;;;;;;-1.38;100.00;97074.16;5072700;28;20222;-77
2024/01/15 02:41:56;;;;;;;9.83;5.20;;;;;;;-1.41;100.00;97072.50;5072272;28;20230;-78
2024/01/15 02:44:22;;;;;;;13.57;5.50;;;;;;;-1.41;100.00;97061.31;5071987;28;20248;-76
2024/01/15 02:46:48;;;;;;;11.40;5.10;;;;;;;-1.47;100.00;97064.16;5071184;28;20210;-76
2024/01/15 02:49:15;;;;;;;12.33;5.30;;;;;;;-1.56;100.00;97067.09;5071646;28;20383;-76
2024/01/15 02:51:42;;;;;;;12.47;4.57;;;;;;;-1.60;100.00;97063.78;5071296;28;20639;-76
2024/01/15 02:54:08;;;;;;;12.50;5.30;;;;;;;-1.68;100.00;97060.63;5071391;28;20312;-78
2024/01/15 02:56:35;;;;;;;10.03;4.73;;;;;;;-1.77;100.00;97065.34;5071114;28;20207;-76
2024/01/15 02:59:03;;;;;;;11.73;5.10;;;;;;;-1.84;100.00;97074.22;5072006;28;20219;-76
2024/01/15 03:01:30;;;;;;;11.23;4.63;;;;;;;-1.77;100.00;97075.69;5071859;28;20289;-76
2024/01/15 03:03:57;;;;;;;11.03;4.90;;;;;;;-1.80;100.00;97073.19;5071838;28;20293;-76
2024/01/15 03:06:23;;;;;;;11.10;5.37;;;;;;;-1.79;100.00;97072.31;5071819;28;20222;-76
2024/01/15 03:08:50;;;;;;;13.37;5.33;;;;;;;-1.85;100.00;97069.97;5071966;28;20214;-76
2024/01/15 03:11:16;;;;;;;11.83;4.90;;;;;;;-1.82;100.00;97072.41;5071504;28;20230;-76
2024/01/15 03:13:43;;;;;;;11.23;5.30;;;;;;;-1.79;100.00;97064.56;5071888;28;20214;-76
2024/01/15 03:16:11;;;;;;;11.87;5.07;;;;;;;-1.72;100.00;97073.78;5071331;28;20673;-76
2024/01/15 03:18:37;;;;;;;9.87;4.67;;;;;;;-1.66;100.00;97069.19;5075568;28;20221;-77
2024/01/15 03:21:05;;;;;;;12.33;5.57;;;;;;;-1.69;100.00;97063.28;5076397;28;20213;-77
2024/01/15 03:23:32;;;;;;;11.80;4.83;;;;;;;-1.66;100.00;97058.81;5075968;28;20221;-77
2024/01/15 03:25:58;;;;;;;12.97;5.20;;;;;;;-1.66;100.00;97058.00;5075163;28;20237;-77
2024/01/15 03:28:25;;;;;;;9.50;4.30;;;;;;;-1.62;100.00;97067.31;5076116;28;20211;-77
2024/01/15 03:30:51;;;;;;;12.07;5.07;;;;;;;-1.59;100.00;97062.03;5075491;28;20589;-76
2024/01/15 03:33:19;;;;;;;12.33;5.47;;;;;;;-1.57;100.00;97060.22;5075321;28;20235;-76
2024/01/15 03:35:45;;;;;;;9.70;4.60;;;;;;;-1.56;100.00;97055.00;5074576;28;20221;-77
2024/01/15 03:38:12;;;;;;;11.30;5.67;;;;;;;-1.53;100.00;97059.22;5076844;28;20214;-77
2024/01/15 03:40:38;;;;;;;9.93;5.43;;;;;;;-1.49;100.00;97051.25;5077368;28;20550;-77
2024/01/15 03:43:05;;;;;;;13.47;5.20;;;;;;;-1.48;100.00;97052.09;5076665;28;20219;-77
2024/01/15 03:45:31;;;;;;;10.67;5.07;;;;;;;-1.49;100.00;97055.56;5077253;28;20302;-76
2024/01/15 03:47:57;;;;;;;11.57;5.70;;;;;;;-1.52;100.00;97050.53;5077294;28;20218;-77
2024/01/15 03:50:25;;;;;;;11.37;4.77;;;;;;;-1.47;100.00;97053.78;5076368;28;20218;-76
2024/01/15 03:52:52;;;;;;;10.73;5.40;;;;;;;-1.43;100.00;97035.47;5076734;28;20252;-76
2024/01/15 03:55:18;;;;;;;10.80;4.90;;;;;;;-1.38;100.00;97043.03;5076978;28;20214;-76
2024/01/15 03:57:45;;;;;;;11.03;5.93;;;;;;;-1.32;100.00;97032.44;5077435;28;20211;-77
2024/01/15 04:00:13;;;;;;;12.73;5.00;;;;;;;-1.27;100.00;97033.09;5087328;28;20203;-78
2024/01/15 04:02:39;;;;;;;13.00;5.57;;;;;;;-1.27;100.00;97033.09;5075838;28;20318;-78
2024/01/15 04:05:06;;;;;;;10.40;5.23;;;;;;;-1.20;100.00;97027.63;5075078;28;20219;-78
2024/01/15 04:07:34;;;;;;;10.33;5.27;;;;;;;-1.02;100.00;97020.81;5075585;28;20215;-76
2024/01/15 04:10:01;;;;;;;11.07;4.50;;;;;;;-1.00;100.00;97024.22;5085809;28;20214;-76
2024/01/15 04:12:27;;;;;;;9.77;4.87;;;;;;;-0.98;100.00;97012.03;5084155;28;20233;-76
2024/01/15 04:14:53;;;;;;;9.23;4.90;;;;;;;-0.90;100.00;97015.13;5076569;28;20210;-77
2024/01/15 04:17:21;;;;;;;11.47;5.00;;;;;;;-0.87;100.00;97009.84;5076717;28;20217;-78
2024/01/15 04:19:48;;;;;;;13.87;4.40;;;;;;;-0.81;100.00;97004.38;5074434;28;20206;-76
2024/01/15 04:22:14;;;;;;;8.87;4.63;;;;;;;-0.81;100.00;97001.78;5075222;28;20399;-76
2024/01/15 04:24:42;;;;;;;12.50;5.27;;;;;;;-0.78;100.00;97005.09;5075341;28;20310;-77
2024/01/15 04:27:08;;;;;;;11.03;4.97;;;;;;;-0.73;100.00;96991.91;5094831;28;20210;-76
2024/01/15 04:29:35;;;;;;;7.83;3.80;;;;;;;-0.71;100.00;96993.53;5077579;28;20210;-77
2024/01/15 04:32:01;;;;;;;9.20;4.60;;;;;;;-0.66;100.00;96982.97;5076885;28;20241;-77
2024/01/15 04:34:28;;;;;;;10.00;5.23;;;;;;;-0.62;100.00;96984.53;5077006;28;20280;-78
2024/01/15 04:36:54;;;;;;;8.47;4.37;;;;;;;-0.60;100.00;96977.50;5086131;28;20207;-77
2024/01/15 04:39:22;;;;;;;10.03;5.03;;;;;;;-0.55;100.00;96978.97;5088177;28;20211;-77
2024/01/15 04:41:49;;;;;;;9.53;4.30;;;;;;;-0.50;100.00;96978.81;5083113;28;20240;-77
2024/01/15 04:44:16;;;;;;;7.40;3.63;;;;;;;-0.49;99.61;96967.50;5075922;28;20217;-77
2024/01/15 04:46:43;;;;;;;9.07;4.17;;;;;;;-0.46;99.47;96957.81;5075972;28;20215;-78
2024/01/15 04:49:10;;;;;;;9.53;3.97;;;;;;;-0.46;99.07;96950.03;5074810;28;20210;-77
2024/01/15 04:51:36;;;;;;;10.93;4.50;;;;;;;-0.46;99.63;96960.41;5077241;28;20632;-77
2024/01/15 04:54:05;;;;;;;7.40;4.37;;;;;;;-0.43;98.79;96973.25;5074947;28;20203;-78
2024/01/15 04:56:31;;;;;;;6.17;4.10;;;;;;;-0.45;98.16;96971.66;5076089;28;20207;-78
2024/01/15 04:58:59;;;;;;;6.33;3.57;;;;;;;-0.46;98.67;96980.31;5074851;28;20286;-77
2024/01/15 05:01:25;;;;;;;10.77;4.27;;;;;;;-0.46;98.40;96981.19;5075260;28;20231;-77
2024/01/15 05:03:52;;;;;;;9.80;3.47;;;;;;;-0.41;98.23;96974.03;5080367;28;20203;-76
2024/01/15 05:06:18;;;;;;;10.70;4.47;;;;;;;-0.41;98.04;96980.97;5096290;28;20191;-77
2024/01/15 05:08:45;;;;;;;9.63;4.67;;;;;;;-0.38;97.18;96978.25;5098071;28;20198;-77
2024/01/15 05:11:11;;;;;;;6.87;3.47;;;;;;;-0.35;96.79;96976.38;5097853;28;20214;-77
2024/01/15 05:13:38;;;;;;;9.93;4.20;;;;;;;-0.31;95.99;96970.09;5097885;28;20229;-77
2024/01/15 05:16:06;;;;;;;10.07;4.00;;;;;;;-0.28;96.23;96961.34;5097561;28;20295;-77
2024/01/15 05:18:32;;;;;;;11.60;4.40;;;;;;;-0.26;95.75;96956.94;5098271;28;20267;-77
2024/01/15 05:20:59;;;;;;;7.87;4.13;;;;;;;-0.24;95.60;96960.31;5098739;28;20255;-76
2024/01/15 05:23:25;;;;;;;11.13;4.37;;;;;;;-0.20;94.62;96941.91;5098453;28;20187;-77
2024/01/15 05:25:52;;;;;;;8.43;4.13;;;;;;;-0.17;94.20;96945.22;5097468;28;20200;-77
2024/01/15 05:28:18;;;;;;;9.33;4.03;;;;;;;-0.18;94.08;96950.50;5097807;28;20215;-76
2024/01/15 05:30:45;;;;;;;6.90;4.13;;;;;;;-0.16;94.42;96933.06;5097642;28;20206;-77
2024/01/15 05:33:13;;;;;;;9.80;4.60;;;;;;;-0.11;93.06;96925.94;5097057;28;20233;-77
2024/01/15 05:35:40;;;;;;;7.30;3.80;;;;;;;-0.12;93.77;96929.44;5097437;28;20258;-77
2024/01/15 05:38:07;;;;;;;7.90;4.50;;;;;;;-0.12;94.02;96932.88;5097079;28;20203;-77
2024/01/15 05:40:33;;;;;;;7.50;4.17;;;;;;;-0.13;93.61;96943.31;5097176;28;20255;-77
2024/01/15 05:43:00;;;;;;;9.47;4.60;;;;;;;-0.13;93.71;96937.28;5097616;28;20213;-77
2024/01/15 05:45:27;;;;;;;7.23;3.97;;;;;;;-0.13;94.04;96939.88;5097206;28;20275;-77
2024/01/15 05:47:54;;;;;;;10.03;4.03;;;;;;;-0.12;93.51;96948.44;5096980;28;20211;-77
2024/01/15 05:50:22;;;;;;;5.93;3.60;;;;;;;-0.11;93.39;96937.13;5097633;28;20215;-77
2024/01/15 05:52:48;;;;;;;10.13;4.07;;;;;;;-0.11;94.33;96938.91;5096866;28;20229;-77
2024/01/15 05:55:15;;;;;;;8.23;4.33;;;;;;;-0.10;93.34;96938.81;5097500;28;20191;-77
2024/01/15 05:57:41;;;;;;;8.53;4.33;;;;;;;-0.13;93.51;96935.53;5096898;28;20221;-77
2024/01/15 06:00:09;;;;;;;7.93;4.40;;;;;;;-0.08;93.15;96927.53;5097318;28;20202;-77
2024/01/15 06:02:38;;;;;;;8.20;4.10;;;;;;;-0.08;93.13;96921.44;5096800;28;20235;-77
2024/01/15 06:05:05;;;;;;;7.27;4.20;;;;;;;-0.08;92.82;96924.03;5097168;28;20191;-77
2024/01/15 06:07:35;;;;;;;9.50;4.13;;;;;;;0.01;92.48;96914.97;5096792;28;20249;-77
2024/01/15 06:10:04;;;;;;;6.73;3.53;;;;;;;0.00;92.03;96903.72;5097197;28;20250;-77
2024/01/15 06:12:32;;;;;;;8.10;4.00;;;;;;;-0.02;92.34;96915.09;5097050;28;20219;-77
2024/01/15 06:14:58;;;;;;;7.60;4.47;;;;;;;-0.03;92.67;96906.47;5097166;28;20267;-77
2024/01/15 06:17:25;;;;;;;10.17;4.37;;;;;;;-0.01;91.52;96902.03;5096801;28;20191;-77
2024/01/15 06:19:51;;;;;;;6.33;4.20;;;;;;;-0.01;91.68;96902.03;5097073;28;20197;-77
2024/01/15 06:22:18;;;;;;;9.27;3.63;;;;;;;0.03;91.71;96898.41;5096891;28;20210;-77
2024/01/15 06:24:46;;;;;;;8.53;3.73;;;;;;;0.01;91.40;96902.81;5097032;28;20262;-77
2024/01/15 06:27:13;;;;;;;6.40;4.10;;;;;;;0.00;92.57;96913.28;5096646;28;20254;-77
2024/01/15 06:29:39;;;;;;;8.10;4.33;;;;;;;-0.02;92.87;96915.94;5096785;28;20208;-77
2024/01/15 06:32:06;;;;;;;7.60;4.10;;;;;;;0.03;92.72;96902.75;5096433;28;20215;-77
2024/01/15 06:34:32;;;;;;;7.07;3.43;;;;;;;-0.01;93.02;96904.66;5096731;28;20254;-77
2024/01/15 06:36:59;;;;;;;6.67;3.70;;;;;;;0.00;92.81;96898.53;5096349;28;20188;-77
2024/01/15 06:39:25;;;;;;;7.13;3.90;;;;;;;0.00;92.99;96888.16;5097023;28;20211;-77
2024/01/15 06:41:53;;;;;;;5.90;3.63;;;;;;;-0.05;92.24;96895.31;5096013;28;20207;-77
2024/01/15 06:44:21;;;;;;;6.70;3.40;;;;;;;-0.05;92.94;96905.69;5088684;28;20206;-77
2024/01/15 06:46:47;;;;;;;8.37;4.40;;;;;;;-0.07;93.64;96906.66;5073469;28;20223;-77
2024/01/15 06:49:14;;;;;;;8.83;4.70;;;;;;;-0.10;93.62;96902.47;5078399;28;20210;-77
2024/01/15 06:51:41;;;;;;;8.23;4.80;;;;;;;-0.06;92.53;96898.00;5090385;28;20231;-77
2024/01/15 06:54:08;;;;;;;8.10;4.13;;;;;;;-0.05;92.86;96910.88;5077575;28;20223;-77
2024/01/15 06:56:35;;;;;;;6.67;3.93;;;;;;;-0.08;92.77;96913.63;5077008;28;20212;-77
2024/01/15 06:59:03;;;;;;;7.43;4.10;;;;;;;-0.10;93.04;96919.81;5081726;28;20211;-77
2024/01/15 07:01:30;;;;;;;8.57;4.43;;;;;;;-0.07;92.23;96912.72;5076564;28;20290;-77
2024/01/15 07:03:56;;;;;;;9.20;4.13;;;;;;;-0.05;92.48;96921.28;5076144;28;20204;-77
2024/01/15 07:06:23;;;;;;;8.93;4.50;;;;;;;-0.07;92.47;96917.06;5075711;28;20207;-77
2024/01/15 07:08:50;;;;;;;7.33;4.03;;;;;;;-0.03;92.35;96911.69;5081361;28;20223;-77
2024/01/15 07:11:16;;;;;;;7.43;4.53;;;;;;;-0.06;92.16;96911.81;5076599;28;20232;-77
2024/01/15 07:13:42;;;;;;;9.37;4.60;;;;;;;-0.01;91.88;96917.63;5075834;28;20681;-77
2024/01/15 07:16:11;;;;;;;8.20;4.73;;;;;;;0.02;91.73;96917.47;5075530;28;20208;-77
2024/01/15 07:18:37;;;;;;;9.03;3.93;;;;;;;0.00;91.87;96908.09;5075808;28;20215;-76
2024/01/15 07:21:04;;;;;;;6.23;3.93;;;;;;;-0.02;91.70;96909.91;5075381;28;20219;-77
2024/01/15 07:23:32;;;;;;;7.70;4.47;;;;;;;-0.01;91.71;96916.78;5075234;28;20218;-76
2024/01/15 07:25:58;;;;;;;7.27;4.27;;;;;;;-0.04;91.84;96917.75;5074724;28;20199;-77
2024/01/15 07:28:25;;;;;;;8.50;4.40;;;;;;;-0.02;91.91;96926.34;5075169;28;20700;-77
2024/01/15 07:30:52;;;;;;;6.53;4.30;;;;;;;-0.02;91.77;96918.53;5074816;28;20960;-77
2024/01/15 07:33:20;;;;;;;8.60;4.40;;;;;;;0.01;91.86;96913.19;5075200;28;20227;-77
2024/01/15 07:35:46;;;;;;;8.20;4.43;;;;;;;0.00;91.55;96916.72;5074276;28;20215;-77
2024/01/15 07:38:13;;;;;;;8.57;4.10;;;;;;;0.03;91.99;96919.19;5075427;28;20301;-77
2024/01/15 07:40:39;;;;;;;9.63;4.40;;;;;;;0.01;91.13;96920.97;5075720;28;20211;-76
2024/01/15 07:43:06;;;;;;;8.07;4.37;;;;;;;0.06;91.60;96923.34;5077622;28;20729;-79
2024/01/15 07:45:32;;;;;;;8.83;3.93;;;;;;;0.05;91.17;96922.53;5077605;28;20215;-76
2024/01/15 07:47:58;;;;;;;8.23;4.10;;;;;;;0.07;90.54;96915.50;5082456;28;20217;-78
2024/01/15 07:50:26;;;;;;;9.10;4.00;;;;;;;0.08;90.81;96916.34;5078161;28;20251;-78
2024/01/15 07:52:53;;;;;;;8.13;4.40;;;;;;;0.07;91.29;96912.91;5075459;28;20258;-77
2024/01/15 07:55:20;;;;;;;9.93;4.83;;;;;;;0.12;90.63;96910.94;5088785;28;20218;-77
2024/01/15 07:57:46;;;;;;;9.33;4.60;;;;;;;0.13;90.27;96910.00;5084198;28;20196;-77
2024/01/15 08:00:14;;;;;;;8.57;4.33;;;;;;;0.15;90.26;96918.59;5076338;28;20211;-77
2024/01/15 08:02:41;;;;;;;9.33;5.07;;;;;;;0.13;90.37;96912.63;5076856;28;20231;-77
2024/01/15 08:05:07;;;;;;;9.73;4.50;;;;;;;0.18;90.05;96915.84;5082595;28;20218;-77
2024/01/15 08:07:35;;;;;;;11.33;4.97;;;;;;;0.23;90.74;96929.44;5083484;28;20215;-77
2024/01/15 08:10:02;;;;;;;10.67;4.80;;;;;;;0.21;89.76;96917.44;5075733;28;20208;-77
2024/01/15 08:12:28;;;;;;;10.47;4.73;;;;;;;0.25;89.52;96919.81;5074002;28;20230;-77
2024/01/15 08:14:55;;;;;;;8.60;4.53;;;;;;;0.29;89.84;96917.91;5073993;28;20239;-77
2024/01/15 08:17:21;;;;;;;10.17;5.00;;;;;;;0.28;90.39;96914.50;5073181;28;20287;-78
2024/01/15 08:19:48;;;;;;;9.87;4.33;;;;;;;0.27;90.00;96918.00;5072791;28;20207;-77
2024/01/15 08:22:14;;;;;;;10.47;5.03;;;;;;;0.28;89.45;96926.63;5074684;28;20238;-77
2024/01/15 08:24:42;;;;;;;9.33;4.73;;;;;;;0.28;89.99;96919.69;5073732;28;20200;-77
2024/01/15 08:27:09;;;;;;;10.70;5.85;;;;;;;0.37;88.82;96916.63;5071308;28;20433;-78
2024/01/15 08:29:35;;;;;;;8.57;4.70;;;;;;;0.42;88.40;96908.59;5070542;28;20207;-78
2024/01/15 08:32:02;;;;;;;8.80;5.10;;;;;;;0.37;88.32;96918.41;5062919;28;20231;-77
2024/01/15 08:34:28;;;;;;;9.00;4.67;;;;;;;0.39;88.15;96914.78;5068381;28;20253;-77
2024/01/15 08:36:55;;;;;;;10.03;4.90;;;;;;;0.45;87.99;96906.69;5072262;28;20203;-77
2024/01/15 08:39:21;;;;;;;7.17;4.40;;;;;;;0.43;85.97;96905.94;5073531;28;20203;-77
2024/01/15 08:41:49;;;;;;;7.50;3.93;;;;;;;0.46;85.38;96892.81;5072822;28;20224;-77
2024/01/15 08:44:16;;;;;;;7.10;3.70;;;;;;;0.55;84.89;96894.94;5072794;28;20203;-77
2024/01/15 08:46:42;;;;;;;7.87;3.70;;;;;;;0.53;84.82;96894.19;5072347;28;20302;-77
2024/01/15 08:49:09;;;;;;;8.63;4.07;;;;;;;0.57;83.86;96887.91;5073380;28;20298;-78
2024/01/15 08:51:35;;;;;;;8.52;4.90;;;;;;;0.62;83.32;96877.28;5069099;28;20445;-77
2024/01/15 08:54:02;;;;;;;10.47;4.03;;;;;;;0.65;83.10;96870.19;5072857;28;20224;-78
2024/01/15 08:56:29;;;;;;;9.13;3.67;;;;;;;0.69;82.18;96869.09;5072846;28;20212;-77
2024/01/15 08:58:57;;;;;;;6.50;3.70;;;;;;;0.75;81.69;96884.38;5073259;28;20694;-77
2024/01/15 09:01:24;;;;;;;7.00;3.87;;;;;;;0.77;80.68;96874.75;5064294;28;20227;-78
2024/01/15 09:03:50;;;;;;;6.60;3.83;;;;;;;0.82;79.31;96879.72;5065690;28;20226;-77
2024/01/15 09:06:17;;;;;;;9.00;3.83;;;;;;;0.79;79.12;96880.72;5071323;28;20214;-77
2024/01/15 09:08:43;;;;;;;7.00;3.10;;;;;;;0.85;78.70;96869.16;5072385;28;20308;-77
2024/01/15 09:11:10;;;;;;;8.10;3.60;;;;;;;0.91;78.11;96864.50;5071864;28;20231;-78
2024/01/15 09:13:36;;;;;;;6.53;3.33;;;;;;;0.89;78.14;96860.28;5071792;28;20235;-78
2024/01/15 09:16:05;;;;;;;5.57;3.30;;;;;;;0.89;77.22;96850.75;5070673;28;20214;-76
2024/01/15 09:18:31;;;;;;;6.20;3.53;;;;;;;0.94;77.34;96864.34;5071861;28;20208;-77
2024/01/15 09:20:58;;;;;;;8.17;3.50;;;;;;;0.96;78.38;96857.31;5071288;28;20657;-77
2024/01/15 09:23:24;;;;;;;5.73;3.17;;;;;;;1.00;77.55;96853.59;5071528;28;20210;-77
2024/01/15 09:25:52;;;;;;;6.93;3.77;;;;;;;1.00;78.05;96845.78;5070882;28;20245;-78
2024/01/15 09:28:19;;;;;;;5.13;3.17;;;;;;;1.03;78.03;96850.00;5071683;28;20635;-78
2024/01/15 09:30:45;;;;;;;7.43;3.40;;;;;;;1.07;79.00;96851.53;5071187;28;20229;-77
2024/01/15 09:33:13;;;;;;;6.40;3.17;;;;;;;1.08;79.75;96861.88;5071141;28;20269;-77
2024/01/15 09:35:40;;;;;;;6.77;3.10;;;;;;;1.12;79.02;96855.56;5071807;28;20214;-78
2024/01/15 09:38:06;;;;;;;5.17;3.27;;;;;;;1.15;78.95;96862.38;5071376;28;20587;-78
2024/01/15 09:40:34;;;;;;;6.63;3.53;;;;;;;1.15;79.34;96878.84;5071231;28;20208;-77
2024/01/15 09:43:02;;;;;;;5.67;3.00;;;;;;;1.23;79.29;96884.47;5071033;28;20227;-77
2024/01/15 09:45:30;;;;;;;5.53;3.03;;;;;;;1.31;79.53;96884.06;5071256;28;20623;-78
2024/01/15 09:47:57;;;;;;;5.67;3.00;;;;;;;1.36;78.99;96877.69;5071350;28;20207;-78
2024/01/15 09:50:25;;;;;;;5.60;3.17;;;;;;;1.38;77.97;96860.25;5070614;28;20207;-78
2024/01/15 09:52:52;;;;;;;6.17;3.27;;;;;;;1.36;77.14;96850.84;5071929;28;20235;-78
2024/01/15 09:55:19;;;;;;;5.27;3.00;;;;;;;1.42;77.78;96846.13;5071711;28;20243;-78
2024/01/15 09:57:46;;;;;;;16.43;3.70;;;;;;;1.39;77.85;96848.91;5071536;28;20211;-78
2024/01/15 10:00:14;;;;;;;4.57;2.73;;;;;;;1.47;78.20;96846.72;5072504;28;20213;-78
2024/01/15 10:02:41;;;;;;;5.00;3.20;;;;;;;1.52;77.36;96846.47;5072063;28;20298;-78
2024/01/15 10:05:08;;;;;;;5.13;2.90;;;;;;;1.56;77.02;96833.25;5072009;28;20204;-78
2024/01/15 10:07:38;;;;;;;5.80;3.13;;;;;;;1.51;76.72;96835.25;5071392;28;20677;-78
2024/01/15 10:10:05;;;;;;;5.23;3.23;;;;;;;1.56;76.95;96841.06;5071603;28;20290;-78
2024/01/15 10:12:32;;;;;;;4.83;3.00;;;;;;;1.53;77.05;96833.38;5071959;28;20315;-78
2024/01/15 10:14:58;;;;;;;5.87;3.30;;;;;;;1.61;77.33;96836.41;5071397;28;20718;-78
2024/01/15 10:17:25;;;;;;;6.63;2.90;;;;;;;1.65;77.05;96827.50;5071080;28;20215;-78
2024/01/15 10:19:52;;;;;;;4.37;2.87;;;;;;;1.65;76.90;96830.13;5072011;28;20646;-78
2024/01/15 10:22:18;;;;;;;5.10;2.87;;;;;;;1.71;75.68;96810.72;5071808;28;20238;-79
2024/01/15 10:24:47;;;;;;;4.93;2.70;;;;;;;1.69;75.46;96799.53;5071883;28;20201;-78
2024/01/15 10:27:14;;;;;;;5.97;3.30;;;;;;;1.62;75.31;96798.19;5072124;28;20211;-78
2024/01/15 10:29:42;;;;;;;5.20;2.80;;;;;;;1.58;75.42;96801.88;5073839;28;20207;-79
2024/01/15 10:32:09;;;;;;;9.43;2.97;;;;;;;1.59;76.44;96806.19;5071901;28;20613;-78
2024/01/15 10:34:39;;;;;;;6.97;3.57;;;;;;;1.61;76.43;96806.94;5071415;28;20227;-78
2024/01/15 10:37:07;;;;;;;6.70;3.10;;;;;;;1.62;76.00;96800.81;5071399;28;20207;-78
2024/01/15 10:39:34;;;;;;;4.43;2.60;;;;;;;1.55;75.94;96789.06;5071823;28;20237;-78
2024/01/15 10:42:02;;;;;;;5.85;3.05;;;;;;;1.60;75.62;96792.25;5071166;28;20804;-77
2024/01/15 10:44:29;;;;;;;4.83;2.60;;;;;;;1.60;76.07;96782.66;5071441;28;20645;-76
2024/01/15 10:46:57;;;;;;;4.83;2.60;;;;;;;1.63;76.48;96781.66;5071233;28;20207;-78
2024/01/15 10:49:25;;;;;;;4.43;2.50;;;;;;;1.61;75.88;96778.31;5071087;28;20218;-76
2024/01/15 10:51:53;;;;;;;5.37;2.87;;;;;;;1.61;77.31;96789.53;5071093;28;20520;-76
2024/01/15 10:54:20;;;;;;;5.07;2.80;;;;;;;1.64;76.68;96786.78;5070772;28;20239;-77
2024/01/15 10:56:47;;;;;;;5.03;2.60;;;;;;;1.69;77.47;96787.38;5070844;28;20220;-77
2024/01/15 10:59:16;;;;;;;3.93;2.57;;;;;;;1.73;76.73;96781.06;5071038;28;20204;-76
2024/01/15 11:01:43;;;;;;;5.47;3.10;;;;;;;1.62;78.66;96788.66;5071069;28;20224;-77
2024/01/15 11:04:10;;;;;;;6.87;3.80;;;;;;;1.57;79.92;96808.03;5070871;28;20217;-77
2024/01/15 11:06:45;;;;;;;4.20;2.73;;;;;;;1.63;82.08;96813.75;5070526;28;20208;-77
2024/01/15 11:09:13;;;;;;;3.27;2.60;;;;;;;1.51;84.57;96830.03;5071695;28;20630;-77
2024/01/15 11:11:42;;;;;;;5.57;3.07;;;;;;;1.47;85.86;96825.91;5071357;28;20223;-77
2024/01/15 11:14:08;;;;;;;3.53;2.70;;;;;;;1.46;85.54;96832.03;5071351;28;20231;-78
2024/01/15 11:16:59;;;;;;;5.20;2.80;;;;;;;1.47;86.17;96844.13;5071388;28;20230;-78
2024/01/15 11:19:27;;;;;;;5.57;2.87;;;;;;;1.40;89.29;96853.19;5071486;28;20238;-78
2024/01/15 11:21:53;;;;;;;5.47;3.23;;;;;;;1.27;93.50;96870.38;5071363;28;20231;-77
2024/01/15 11:24:37;;;;;;;3.57;2.50;;;;;;;1.10;98.30;96880.84;5071578;28;20204;-77
2024/01/15 11:27:04;;;;;;;4.17;2.80;;;;;;;1.09;100.00;96873.09;5070933;28;20211;-77